EmailTwitter


Surface observations / Quebec / EGBB

Quebec | Canada | USA | France | UK | Europe | Elsewhere

Station
Display
Info & Location for EGBB | Help decoding METAR

EGBB BIRMINGHAM AIRPORT -- UK
Raw surface observations for station EGBB
EGBB 191820Z 23005KT 210V270 9999 BKN021 OVC027 11/09 Q1020=
EGBB 191750Z 24006KT 200V280 9999 BKN018 OVC024 11/09 Q1020=
EGBB 191720Z 23005KT 190V270 9999 SCT013 OVC023 11/09 Q1020=
EGBB 191650Z 24005KT 200V270 9999 OVC016 11/09 Q1020=
EGBB 191620Z 24004KT 190V300 9999 BKN019 11/08 Q1020=
EGBB 191550Z 22006KT 9999 OVC019 11/08 Q1020=
EGBB 191520Z 25004KT 220V300 9999 OVC022 11/08 Q1020=
EGBB 191450Z 26006KT 230V290 9999 OVC020 11/08 Q1020=
EGBB 191420Z 22006KT 9999 BKN021 11/08 Q1020=
EGBB 191350Z 22006KT 190V260 9999 BKN021 11/07 Q1020=
EGBB 191320Z 25006KT 210V300 9999 BKN021 11/07 Q1021=
EGBB 191250Z 26007KT 220V300 9999 BKN018 11/07 Q1021=
EGBB 191220Z 26006KT 220V280 9999 BKN020 10/07 Q1021=
EGBB 191150Z 25006KT 210V280 9999 BKN020 10/07 Q1022=
EGBB 191120Z 27007KT 9999 BKN020 10/07 Q1022=
EGBB 191050Z 26006KT 220V300 9999 BKN020 10/07 Q1022=
EGBB 191020Z 25006KT 220V290 9999 SCT018 BKN048 10/07 Q1022=
EGBB 190950Z 25004KT 210V280 9999 SCT021 BKN048 09/07 Q1022=
EGBB 190920Z 26005KT 220V290 9999 BKN021 08/07 Q1022=
EGBB 190850Z 24005KT 9999 BKN018 08/07 Q1021=
EGBB 190820Z 23004KT 190V270 9999 BKN021 08/07 Q1021=
EGBB 190750Z 22005KT 170V250 9999 BKN023 07/07 Q1021=
EGBB 190720Z 17005KT 9000 BKN023 07/07 Q1021=
EGBB 190650Z VRB03KT 9999 BKN023 07/07 Q1020=
EGBB 190620Z VRB03KT 9999 BKN022 07/07 Q1020=
EGBB 190550Z 24005KT 6000 NSC 07/07 Q1020=
EGBB 190520Z 21004KT 160V240 4700 BR NSC 07/07 Q1020=
EGBB 190450Z 21004KT 170V240 6000 NSC 07/07 Q1020=
EGBB 190420Z 23007KT 200V260 6000 NSC 07/07 Q1019=
EGBB 190350Z 22007KT 180V250 6000 FEW039 07/07 Q1019=
EGBB 190320Z 22007KT 180V240 6000 FEW032 BKN039 08/07 Q1020=
EGBB 190250Z 23007KT 6000 BKN030 OVC036 08/07 Q1020=
EGBB 190220Z 22006KT 180V250 6000 BKN035 OVC040 08/07 Q1021=
EGBB 190150Z 20005KT 160V240 6000 SCT031 OVC036 08/07 Q1021=
EGBB 190120Z 22006KT 6000 SCT027 OVC032 08/07 Q1021=
EGBB 190050Z 21007KT 170V250 6000 FEW025 OVC031 08/07 Q1021=
EGBB 190020Z 21006KT 170V250 5000 BR BKN024 OVC030 08/07 Q1021=
EGBB 182350Z 21005KT 170V250 4700 BR OVC030 08/07 Q1021=
EGBB 182320Z 21005KT 170V240 5000 BR BKN028 OVC033 08/07 Q1022=
EGBB 182250Z 20005KT 5000 BR OVC032 08/07 Q1022=
EGBB 182220Z 20004KT 170V240 5000 BR SCT027 OVC033 08/08 Q1022=
EGBB 182150Z VRB03KT 5000 BR OVC027 08/08 Q1022=
EGBB 182120Z 19004KT 160V230 8000 BKN028 08/07 Q1022=
EGBB 182050Z 21004KT 180V250 6000 BKN028 08/07 Q1022=
EGBB 182020Z 22006KT 6000 SCT027 07/07 Q1022=
EGBB 181950Z 20005KT 6000 FEW020 07/07 Q1022=
EGBB 181920Z VRB03KT 7000 FEW020 07/07 Q1022=
EGBB 181850Z 23005KT 7000 FEW011 08/07 Q1022=
EGBB 181820Z 21005KT 140V280 7000 SCT014 08/07 Q1021=